createdAt,value
2018-11-02T00:00:42.791Z,16.83
2018-11-02T00:03:11.396Z,15.90
2018-11-02T00:05:40.049Z,16.07
2018-11-02T00:08:09.791Z,15.53
2018-11-02T00:10:38.523Z,15.20
2018-11-02T00:13:07.177Z,17.43
2018-11-02T00:15:35.956Z,16.53
2018-11-02T00:18:04.670Z,17.47
2018-11-02T00:20:33.200Z,18.67
2018-11-02T00:23:01.755Z,18.70
2018-11-02T00:25:30.403Z,17.60
2018-11-02T00:27:58.989Z,18.83
2018-11-02T00:30:27.524Z,17.70
2018-11-02T00:32:56.264Z,18.10
2018-11-02T00:35:25.149Z,17.30
2018-11-02T00:37:53.686Z,18.80
2018-11-02T00:40:22.206Z,17.57
2018-11-02T00:42:51.481Z,18.20
2018-11-02T00:45:20.070Z,18.80
2018-11-02T00:47:48.905Z,19.07
2018-11-02T00:50:17.500Z,17.73
2018-11-02T00:52:46.070Z,16.93
2018-11-02T00:55:14.636Z,17.60
2018-11-02T00:57:43.261Z,17.40
2018-11-02T01:00:13.757Z,18.00
2018-11-02T01:02:42.623Z,18.03
2018-11-02T01:05:11.246Z,17.43
2018-11-02T01:07:39.773Z,18.60
2018-11-02T01:10:08.388Z,16.87
2018-11-02T01:12:38.087Z,15.63
2018-11-02T01:15:07.941Z,15.57
2018-11-02T01:17:36.576Z,14.80
2018-11-02T01:20:07.175Z,15.00
2018-11-02T01:22:35.839Z,13.53
2018-11-02T01:25:04.655Z,12.87
2018-11-02T01:27:33.268Z,11.90
2018-11-02T01:30:01.822Z,11.50
2018-11-02T01:32:30.569Z,11.87
2018-11-02T01:34:59.301Z,11.47
2018-11-02T01:37:27.858Z,10.50
2018-11-02T01:39:56.463Z,11.07
2018-11-02T01:42:25.050Z,10.90
2018-11-02T01:44:53.659Z,11.13
2018-11-02T01:47:22.267Z,10.57
2018-11-02T01:49:50.867Z,9.87
2018-11-02T01:52:19.488Z,9.47
2018-11-02T01:54:48.133Z,9.57
2018-11-02T01:57:16.683Z,9.50
2018-11-02T01:59:45.230Z,9.97
2018-11-02T02:02:13.810Z,8.47
2018-11-02T02:04:42.383Z,9.23
2018-11-02T02:07:10.966Z,8.67
2018-11-02T02:09:39.496Z,8.10
2018-11-02T02:12:08.109Z,7.93
2018-11-02T02:14:36.777Z,9.13
2018-11-02T02:17:05.678Z,8.43
2018-11-02T02:19:35.078Z,8.47
2018-11-02T02:22:03.657Z,7.67
2018-11-02T02:24:32.212Z,7.83
2018-11-02T02:27:00.902Z,8.20
2018-11-02T02:29:29.463Z,8.07
2018-11-02T02:31:58.107Z,7.63
2018-11-02T02:34:26.824Z,8.93
2018-11-02T02:36:55.412Z,7.57
2018-11-02T02:39:23.971Z,7.37
2018-11-02T02:41:52.562Z,7.87
2018-11-02T02:44:21.165Z,7.80
2018-11-02T02:46:49.863Z,8.10
2018-11-02T02:49:18.471Z,7.73
2018-11-02T02:51:47.164Z,6.97
2018-11-02T02:54:15.719Z,6.70
2018-11-02T02:56:44.360Z,7.93
2018-11-02T02:59:12.978Z,7.57
2018-11-02T03:01:41.588Z,7.90
2018-11-02T03:04:10.231Z,8.50
2018-11-02T03:06:38.760Z,7.63
2018-11-02T03:09:08.301Z,7.20
2018-11-02T03:11:37.130Z,7.13
2018-11-02T03:14:06.001Z,7.40
2018-11-02T03:16:34.597Z,8.07
2018-11-02T03:19:03.217Z,7.57
2018-11-02T03:21:31.779Z,7.47
2018-11-02T03:24:00.474Z,8.10
2018-11-02T03:26:28.985Z,8.50
2018-11-02T03:28:57.560Z,7.90
2018-11-02T03:31:26.089Z,7.23
2018-11-02T03:33:54.881Z,7.93
2018-11-02T03:36:23.734Z,7.20
2018-11-02T03:38:52.273Z,8.43
2018-11-02T03:41:20.865Z,8.37
2018-11-02T03:43:49.946Z,7.70
2018-11-02T03:46:18.610Z,7.97
2018-11-02T03:48:47.276Z,8.67
2018-11-02T03:51:16.018Z,8.17
2018-11-02T03:53:44.693Z,7.77
2018-11-02T03:56:13.334Z,8.43
2018-11-02T03:58:41.961Z,8.40
2018-11-02T04:01:10.791Z,8.07
2018-11-02T04:03:40.308Z,8.23
2018-11-02T04:06:09.544Z,7.90
2018-11-02T04:08:38.378Z,9.20
2018-11-02T04:11:06.939Z,8.83
2018-11-02T04:13:35.631Z,8.60
2018-11-02T04:16:05.089Z,9.00
2018-11-02T04:18:33.732Z,9.17
2018-11-02T04:21:02.385Z,8.97
2018-11-02T04:23:30.951Z,9.10
2018-11-02T04:25:59.692Z,8.87
2018-11-02T04:28:28.235Z,8.93
2018-11-02T04:30:56.935Z,10.13
2018-11-02T04:33:25.859Z,9.40
2018-11-02T04:35:54.517Z,9.77
2018-11-02T04:38:23.215Z,9.23
2018-11-02T04:40:51.838Z,8.80
2018-11-02T04:43:20.424Z,8.80
2018-11-02T04:45:49.115Z,9.33
2018-11-02T04:48:17.757Z,8.97
2018-11-02T04:50:46.384Z,8.47
2018-11-02T04:53:14.953Z,9.50
2018-11-02T04:55:43.500Z,9.73
2018-11-02T04:58:12.122Z,9.37
2018-11-02T05:00:40.822Z,9.37
2018-11-02T05:03:09.529Z,8.43
2018-11-02T05:05:38.339Z,9.73
2018-11-02T05:08:07.091Z,9.73
2018-11-02T05:10:35.623Z,9.20
2018-11-02T05:13:04.201Z,9.60
2018-11-02T05:15:32.719Z,9.10
2018-11-02T05:18:01.261Z,9.53
2018-11-02T05:20:29.775Z,9.23
2018-11-02T05:22:58.311Z,9.43
2018-11-02T05:25:26.847Z,9.03
2018-11-02T05:27:55.705Z,10.20
2018-11-02T05:30:24.386Z,9.20
2018-11-02T05:32:53.143Z,9.47
2018-11-02T05:35:21.826Z,9.53
2018-11-02T05:37:50.397Z,9.13
2018-11-02T05:40:18.983Z,9.17
2018-11-02T05:42:47.777Z,9.67
2018-11-02T05:45:16.612Z,9.77
2018-11-02T05:47:45.278Z,9.57
2018-11-02T05:50:13.987Z,9.23
2018-11-02T05:52:42.599Z,8.77
2018-11-02T05:55:11.226Z,8.87
2018-11-02T05:57:39.840Z,9.60
2018-11-02T06:00:09.396Z,9.57
2018-11-02T06:02:38.018Z,10.07
2018-11-02T06:05:07.059Z,9.73
2018-11-02T06:07:35.747Z,10.20
2018-11-02T06:10:04.445Z,9.80
2018-11-02T06:12:32.974Z,9.10
2018-11-02T06:15:01.622Z,9.63
2018-11-02T06:17:30.265Z,9.90
2018-11-02T06:19:58.802Z,9.97
2018-11-02T06:22:27.475Z,9.93
2018-11-02T06:24:56.080Z,10.50
2018-11-02T06:27:24.814Z,10.60
2018-11-02T06:29:53.539Z,10.60
2018-11-02T06:32:22.280Z,10.77
2018-11-02T06:34:50.846Z,10.17
2018-11-02T06:37:19.405Z,9.90
2018-11-02T06:39:47.997Z,10.30
2018-11-02T06:42:16.625Z,10.53
2018-11-02T06:44:45.284Z,9.97
2018-11-02T06:47:13.887Z,10.17
2018-11-02T06:49:42.663Z,10.27
2018-11-02T06:52:11.345Z,10.67
2018-11-02T06:54:39.986Z,10.00
2018-11-02T06:57:08.588Z,9.43
2018-11-02T06:59:37.411Z,9.63
2018-11-02T07:02:05.896Z,9.53
2018-11-02T07:04:34.621Z,9.00
2018-11-02T07:07:03.322Z,9.63
2018-11-02T07:09:31.870Z,9.10
2018-11-02T07:12:00.442Z,9.10
2018-11-02T07:14:29.131Z,9.33
2018-11-02T07:16:57.895Z,9.20
2018-11-02T07:19:26.478Z,8.60
2018-11-02T07:21:55.118Z,9.60
2018-11-02T07:24:23.678Z,8.33
2018-11-02T07:26:52.285Z,8.27
2018-11-02T07:29:20.877Z,8.63
2018-11-02T07:31:49.446Z,7.77
2018-11-02T07:34:18.253Z,8.20
2018-11-02T07:36:46.692Z,8.77
2018-11-02T07:39:15.386Z,8.83
2018-11-02T07:41:44.339Z,8.30
2018-11-02T07:44:12.832Z,8.57
2018-11-02T07:46:41.429Z,9.17
2018-11-02T07:49:10.019Z,8.90
2018-11-02T07:51:38.527Z,9.00
2018-11-02T07:54:07.074Z,9.50
2018-11-02T07:56:35.570Z,10.03
2018-11-02T07:59:04.173Z,8.50
2018-11-02T08:01:32.708Z,9.53
2018-11-02T08:04:01.540Z,8.97
2018-11-02T08:06:29.752Z,8.83
2018-11-02T08:08:58.330Z,9.47
2018-11-02T08:11:26.896Z,9.67
2018-11-02T08:13:55.426Z,10.20
2018-11-02T08:16:23.911Z,9.67
2018-11-02T08:18:52.530Z,9.37
2018-11-02T08:21:21.072Z,11.00
2018-11-02T08:23:49.646Z,10.83
2018-11-02T08:26:18.111Z,10.73
2018-11-02T08:28:46.616Z,10.30
2018-11-02T08:31:15.146Z,10.23
2018-11-02T08:33:43.836Z,10.40
2018-11-02T08:36:12.356Z,10.57
2018-11-02T08:38:40.889Z,10.67
2018-11-02T08:41:09.400Z,9.60
2018-11-02T08:43:37.882Z,8.33
2018-11-02T08:46:06.449Z,7.90
2018-11-02T08:48:34.994Z,7.20
2018-11-02T08:51:03.608Z,6.40
2018-11-02T08:53:32.094Z,6.60
2018-11-02T08:56:00.613Z,6.10
2018-11-02T08:58:29.204Z,6.10
2018-11-02T09:00:57.677Z,5.43
2018-11-02T09:03:26.149Z,4.90
2018-11-02T09:05:54.659Z,5.50
2018-11-02T09:08:23.201Z,4.80
2018-11-02T09:10:51.773Z,5.53
2018-11-02T09:13:20.243Z,4.07
2018-11-02T09:15:48.833Z,3.73
2018-11-02T09:18:17.363Z,2.97
2018-11-02T09:20:45.855Z,2.90
2018-11-02T09:23:14.425Z,3.17
2018-11-02T09:25:42.967Z,2.30
2018-11-02T09:28:11.583Z,2.23
2018-11-02T09:30:40.089Z,2.00
2018-11-02T09:33:08.788Z,1.80
2018-11-02T09:35:37.284Z,1.50
2018-11-02T09:38:06.148Z,1.33
2018-11-02T09:40:34.780Z,1.10
2018-11-02T09:43:03.224Z,1.00
2018-11-02T09:45:31.824Z,1.67
2018-11-02T09:48:00.363Z,1.20
2018-11-02T09:50:28.930Z,0.80
2018-11-02T09:52:57.516Z,0.93
2018-11-02T09:55:26.016Z,0.90
2018-11-02T09:57:54.687Z,1.23
2018-11-02T10:00:23.232Z,0.87
2018-11-02T10:02:51.783Z,1.00
2018-11-02T10:05:20.449Z,1.00
2018-11-02T10:07:48.987Z,0.90
2018-11-02T10:10:17.558Z,1.00
2018-11-02T10:12:46.152Z,1.07
2018-11-02T10:15:15.576Z,1.10
2018-11-02T10:17:44.160Z,1.23
2018-11-02T10:20:12.790Z,1.20
2018-11-02T10:22:41.351Z,1.17
2018-11-02T10:25:10.736Z,0.93
2018-11-02T10:27:40.334Z,1.00
2018-11-02T10:30:10.878Z,1.17
2018-11-02T10:32:39.552Z,1.13
2018-11-02T10:35:08.861Z,1.20
2018-11-02T10:37:37.858Z,1.30
2018-11-02T10:40:09.822Z,1.30
2018-11-02T10:42:38.888Z,1.23
2018-11-02T10:45:07.597Z,0.87
2018-11-02T10:47:36.268Z,1.40
2018-11-02T10:50:05.153Z,1.37
2018-11-02T10:52:33.738Z,1.17
2018-11-02T10:55:02.323Z,1.10
2018-11-02T10:57:30.884Z,1.67
2018-11-02T10:59:59.432Z,1.50
2018-11-02T11:02:33.228Z,1.70
2018-11-02T11:05:01.853Z,1.23
2018-11-02T11:07:30.458Z,1.63
2018-11-02T11:09:59.075Z,1.47
2018-11-02T11:12:27.808Z,1.50
2018-11-02T11:14:56.164Z,1.40
2018-11-02T11:17:24.755Z,1.60
2018-11-02T11:19:53.297Z,1.47
2018-11-02T11:22:21.933Z,1.40
2018-11-02T11:24:50.466Z,1.37
2018-11-02T11:27:19.044Z,1.33
2018-11-02T11:29:47.645Z,1.07
2018-11-02T11:32:16.241Z,1.30
2018-11-02T11:34:44.807Z,1.40
2018-11-02T11:37:13.386Z,1.20
2018-11-02T11:39:42.092Z,1.53
2018-11-02T11:42:10.562Z,1.17
2018-11-02T11:44:39.130Z,1.43
2018-11-02T11:47:07.690Z,1.67
2018-11-02T11:49:36.396Z,1.60
2018-11-02T11:52:05.363Z,1.80
2018-11-02T11:54:34.068Z,1.93
2018-11-02T11:57:02.571Z,1.67
2018-11-02T11:59:31.128Z,1.50
2018-11-02T12:01:59.680Z,1.50
2018-11-02T12:04:28.330Z,1.60
2018-11-02T12:06:56.847Z,1.80
2018-11-02T12:09:25.392Z,1.87
2018-11-02T12:11:54.007Z,1.23
2018-11-02T12:14:22.597Z,1.63
2018-11-02T12:16:51.152Z,1.70
2018-11-02T12:19:19.709Z,1.40
2018-11-02T12:21:48.276Z,1.80
2018-11-02T12:24:16.771Z,1.67
2018-11-02T12:26:45.360Z,1.70
2018-11-02T12:29:13.872Z,1.47
2018-11-02T12:31:42.460Z,2.10
2018-11-02T12:34:11.083Z,2.17
2018-11-02T12:36:39.564Z,1.90
2018-11-02T12:39:08.371Z,1.50
2018-11-02T12:41:37.025Z,2.27
2018-11-02T12:44:06.795Z,2.00
2018-11-02T12:46:35.518Z,2.20
2018-11-02T12:49:04.412Z,1.93
2018-11-02T12:51:32.655Z,1.50
2018-11-02T12:54:01.305Z,1.70
2018-11-02T12:56:29.848Z,1.90
2018-11-02T12:58:58.440Z,1.90
2018-11-02T13:01:26.970Z,1.60
2018-11-02T13:03:55.479Z,1.63
2018-11-02T13:06:23.979Z,1.53
2018-11-02T13:08:52.656Z,1.80
2018-11-02T13:11:21.193Z,1.60
2018-11-02T13:13:49.750Z,1.37
2018-11-02T13:16:18.676Z,2.00
2018-11-02T13:18:47.295Z,1.80
2018-11-02T13:21:15.837Z,1.50
2018-11-02T13:23:44.392Z,1.90
2018-11-02T13:26:13.211Z,2.33
2018-11-02T13:28:41.718Z,3.43
2018-11-02T13:31:10.283Z,2.03
2018-11-02T13:33:38.790Z,2.07
2018-11-02T13:36:07.424Z,1.90
2018-11-02T13:38:36.174Z,2.07
2018-11-02T13:41:04.741Z,2.27
2018-11-02T13:43:33.401Z,1.67
2018-11-02T13:46:02.220Z,1.60
2018-11-02T13:48:30.799Z,1.70
2018-11-02T13:50:59.478Z,1.60
2018-11-02T13:53:28.176Z,2.20
2018-11-02T13:55:56.761Z,2.23
2018-11-02T13:58:25.317Z,2.10
2018-11-02T14:00:53.892Z,1.60
2018-11-02T14:03:22.784Z,2.00
2018-11-02T14:05:51.398Z,1.80
2018-11-02T14:08:19.985Z,1.87
2018-11-02T14:10:48.604Z,1.90
2018-11-02T14:13:17.211Z,1.80
2018-11-02T14:15:45.704Z,1.80
2018-11-02T14:18:14.405Z,2.10
2018-11-02T14:20:42.868Z,2.53
2018-11-02T14:23:11.437Z,2.00
2018-11-02T14:25:40.037Z,2.50
2018-11-02T14:28:08.631Z,1.80
2018-11-02T14:30:37.147Z,2.13
2018-11-02T14:33:06.173Z,1.80
2018-11-02T14:35:34.763Z,1.93
2018-11-02T14:38:03.369Z,2.00
2018-11-02T14:40:31.924Z,2.30
2018-11-02T14:43:00.457Z,2.20
2018-11-02T14:45:29.020Z,2.13
2018-11-02T14:47:57.582Z,2.30
2018-11-02T14:50:26.194Z,2.13
2018-11-02T14:52:54.760Z,1.80
2018-11-02T14:55:23.312Z,2.20
2018-11-02T14:57:51.900Z,2.10
2018-11-02T15:00:20.436Z,2.67
2018-11-02T15:02:49.075Z,2.07
2018-11-02T15:05:17.571Z,1.77
2018-11-02T15:07:46.102Z,2.70
2018-11-02T15:10:14.721Z,1.90
2018-11-02T15:12:43.222Z,1.90
2018-11-02T15:15:15.570Z,1.70
2018-11-02T15:17:44.112Z,2.23
2018-11-02T15:20:14.206Z,2.00
2018-11-02T15:22:42.841Z,2.07
2018-11-02T15:25:11.377Z,1.80
2018-11-02T15:27:39.924Z,2.47
2018-11-02T15:30:10.471Z,2.23
2018-11-02T15:32:39.098Z,1.70
2018-11-02T15:35:08.315Z,2.30
2018-11-02T15:37:36.820Z,1.70
2018-11-02T15:40:05.998Z,2.43
2018-11-02T15:42:34.546Z,2.53
2018-11-02T15:45:03.085Z,2.70
2018-11-02T15:47:31.647Z,2.67
2018-11-02T15:50:00.327Z,2.30
2018-11-02T15:52:28.974Z,2.37
2018-11-02T15:54:57.542Z,2.07
2018-11-02T15:57:26.384Z,2.80
2018-11-02T15:59:54.917Z,2.07
2018-11-02T16:02:23.508Z,2.33
2018-11-02T16:04:52.105Z,2.23
2018-11-02T16:07:20.664Z,3.37
2018-11-02T16:09:49.250Z,3.00
2018-11-02T16:12:17.912Z,2.63
2018-11-02T16:14:46.535Z,3.63
2018-11-02T16:17:15.128Z,2.50
2018-11-02T16:19:43.679Z,2.70
2018-11-02T16:22:12.254Z,2.77
2018-11-02T16:24:40.828Z,2.70
2018-11-02T16:27:09.397Z,2.30
2018-11-02T16:29:38.196Z,2.87
2018-11-02T16:32:06.815Z,2.50
2018-11-02T16:34:35.499Z,3.80
2018-11-02T16:37:04.189Z,2.67
2018-11-02T16:39:32.701Z,2.40
2018-11-02T16:42:01.270Z,2.90
2018-11-02T16:44:29.848Z,3.10
2018-11-02T16:46:58.414Z,2.53
2018-11-02T16:49:27.004Z,3.03
2018-11-02T16:51:55.537Z,3.27
2018-11-02T16:54:24.281Z,3.40
2018-11-02T16:56:52.758Z,3.83
2018-11-02T16:59:21.347Z,3.37
2018-11-02T17:01:49.934Z,3.53
2018-11-02T17:04:18.556Z,3.60
2018-11-02T17:06:47.081Z,2.73
2018-11-02T17:09:15.610Z,4.27
2018-11-02T17:11:44.133Z,3.40
2018-11-02T17:14:12.684Z,3.97
2018-11-02T17:16:41.239Z,4.20
2018-11-02T17:19:09.835Z,4.20
2018-11-02T17:21:38.443Z,4.10
2018-11-02T17:24:06.968Z,3.23
2018-11-02T17:26:35.476Z,4.57
2018-11-02T17:29:04.051Z,3.53
2018-11-02T17:31:32.559Z,3.50
2018-11-02T17:34:02.046Z,3.57
2018-11-02T17:36:30.618Z,3.73
2018-11-02T17:38:59.117Z,3.67
2018-11-02T17:41:27.958Z,4.00
2018-11-02T17:43:56.534Z,3.00
2018-11-02T17:46:25.075Z,3.90
2018-11-02T17:48:54.133Z,3.43
2018-11-02T17:51:22.671Z,3.63
2018-11-02T17:53:51.228Z,4.00
2018-11-02T17:56:19.783Z,4.23
2018-11-02T17:58:48.350Z,4.13
2018-11-02T18:01:16.939Z,3.70
2018-11-02T18:03:45.486Z,3.50
2018-11-02T18:06:14.210Z,3.47
2018-11-02T18:08:42.692Z,2.67
2018-11-02T18:11:11.293Z,3.30
2018-11-02T18:13:39.887Z,3.40
2018-11-02T18:16:08.458Z,3.23
2018-11-02T18:18:37.061Z,3.10
2018-11-02T18:21:05.685Z,3.20
2018-11-02T18:23:34.290Z,3.00
2018-11-02T18:26:02.877Z,2.90
2018-11-02T18:28:31.551Z,3.10
2018-11-02T18:31:00.105Z,2.90
2018-11-02T18:33:28.901Z,4.30
2018-11-02T18:35:59.440Z,4.10
2018-11-02T18:38:28.075Z,4.10
2018-11-02T18:40:56.684Z,3.80
2018-11-02T18:43:25.267Z,4.13
2018-11-02T18:45:53.855Z,4.13
2018-11-02T18:48:22.595Z,3.70
2018-11-02T18:50:51.108Z,3.80
2018-11-02T18:53:19.645Z,3.57
2018-11-02T18:55:48.151Z,3.90
2018-11-02T18:58:16.688Z,3.97
2018-11-02T19:00:45.233Z,5.13
2018-11-02T19:03:13.800Z,4.13
2018-11-02T19:05:42.506Z,4.20
2018-11-02T19:08:10.990Z,3.67
2018-11-02T19:10:39.528Z,4.03
2018-11-02T19:13:08.120Z,3.90
2018-11-02T19:15:36.719Z,4.00
2018-11-02T19:18:05.354Z,4.20
2018-11-02T19:20:34.093Z,5.73
2018-11-02T19:23:02.602Z,4.70
2018-11-02T19:25:31.206Z,5.10
2018-11-02T19:27:59.804Z,5.03
2018-11-02T19:30:28.476Z,4.37
2018-11-02T19:32:57.854Z,3.97
2018-11-02T19:35:26.462Z,4.20
2018-11-02T19:37:55.031Z,4.27
2018-11-02T19:40:23.514Z,4.63
2018-11-02T19:42:52.052Z,3.97
2018-11-02T19:45:20.612Z,4.37
2018-11-02T19:47:51.218Z,3.90
2018-11-02T19:50:20.178Z,4.10
2018-11-02T19:52:48.770Z,4.23
2018-11-02T19:55:17.419Z,4.10
2018-11-02T19:57:45.917Z,4.00
2018-11-02T20:00:15.518Z,4.77
2018-11-02T20:02:44.131Z,5.87
2018-11-02T20:05:15.383Z,5.33
2018-11-02T20:07:44.246Z,4.40
2018-11-02T20:10:13.802Z,4.93
2018-11-02T20:12:42.782Z,5.20
2018-11-02T20:15:12.343Z,5.00
2018-11-02T20:17:41.499Z,4.93
2018-11-02T20:20:11.588Z,4.13
2018-11-02T20:22:40.180Z,4.43
2018-11-02T20:25:10.746Z,4.97
2018-11-02T20:27:39.348Z,4.33
2018-11-02T20:30:10.068Z,4.80
2018-11-02T20:32:38.673Z,4.90
2018-11-02T20:35:07.584Z,4.43
2018-11-02T20:37:36.295Z,5.10
2018-11-02T20:40:06.037Z,4.50
2018-11-02T20:42:34.828Z,4.73
2018-11-02T20:45:03.395Z,5.13
2018-11-02T20:47:37.288Z,4.27
2018-11-02T20:50:06.942Z,4.53
2018-11-02T20:52:35.554Z,4.77
2018-11-02T20:55:04.215Z,4.97
2018-11-02T20:57:32.911Z,4.57
2018-11-02T21:00:01.446Z,4.60
2018-11-02T21:02:30.036Z,3.87
2018-11-02T21:04:58.570Z,4.10
2018-11-02T21:07:27.587Z,4.20
2018-11-02T21:09:56.076Z,4.73
2018-11-02T21:12:24.870Z,4.23
2018-11-02T21:14:53.503Z,4.60
2018-11-02T21:17:22.010Z,4.67
2018-11-02T21:19:50.607Z,4.60
2018-11-02T21:22:19.309Z,4.10
2018-11-02T21:24:47.874Z,4.60
2018-11-02T21:27:16.425Z,4.40
2018-11-02T21:29:45.040Z,3.97
2018-11-02T21:32:13.555Z,4.30
2018-11-02T21:34:42.113Z,3.90
2018-11-02T21:37:10.708Z,3.90
2018-11-02T21:39:39.270Z,4.50
2018-11-02T21:42:07.810Z,5.20
2018-11-02T21:44:36.436Z,5.37
2018-11-02T21:47:05.443Z,4.80
2018-11-02T21:49:34.050Z,4.83
2018-11-02T21:52:02.614Z,4.10
2018-11-02T21:54:31.226Z,4.13
2018-11-02T21:56:59.752Z,4.80
2018-11-02T21:59:28.382Z,4.97
2018-11-02T22:01:56.971Z,4.77
2018-11-02T22:04:25.539Z,4.63
2018-11-02T22:06:54.164Z,5.30
2018-11-02T22:09:22.714Z,4.90
2018-11-02T22:11:51.211Z,6.30
2018-11-02T22:14:19.746Z,6.70
2018-11-02T22:16:48.280Z,6.60
2018-11-02T22:19:16.912Z,6.30
2018-11-02T22:21:45.396Z,6.10
2018-11-02T22:24:13.962Z,6.70
2018-11-02T22:26:42.507Z,7.63
2018-11-02T22:29:11.081Z,6.90
2018-11-02T22:31:39.635Z,7.13
2018-11-02T22:34:08.207Z,8.17
2018-11-02T22:36:36.766Z,7.77
2018-11-02T22:39:07.853Z,8.77
2018-11-02T22:41:36.569Z,8.07
2018-11-02T22:44:05.116Z,8.33
2018-11-02T22:46:33.755Z,7.90
2018-11-02T22:49:02.275Z,7.90
2018-11-02T22:51:31.006Z,7.90
2018-11-02T22:53:59.618Z,8.23
2018-11-02T22:56:28.312Z,7.70
2018-11-02T22:58:56.863Z,7.77
2018-11-02T23:01:28.368Z,7.60
2018-11-02T23:03:58.920Z,8.57
2018-11-02T23:06:27.865Z,8.13
2018-11-02T23:08:56.474Z,7.90
2018-11-02T23:11:25.164Z,8.50
2018-11-02T23:13:53.974Z,8.33
2018-11-02T23:16:22.582Z,8.00
2018-11-02T23:18:51.317Z,8.07
2018-11-02T23:21:20.254Z,8.33
2018-11-02T23:23:48.946Z,8.33
2018-11-02T23:26:17.522Z,7.90
2018-11-02T23:28:46.161Z,7.83
2018-11-02T23:31:14.686Z,8.03
2018-11-02T23:33:43.456Z,7.43
2018-11-02T23:36:12.149Z,7.20
2018-11-02T23:38:40.707Z,6.97
2018-11-02T23:41:09.255Z,7.87
2018-11-02T23:43:37.826Z,7.80
2018-11-02T23:46:06.484Z,7.43
2018-11-02T23:48:35.137Z,7.97
2018-11-02T23:51:03.713Z,7.67
2018-11-02T23:53:32.408Z,7.37
2018-11-02T23:56:01.107Z,8.10
2018-11-02T23:58:29.847Z,7.27
